Time;durP1;ratioP1;P1;durP2;ratioP2;P2;SDS_P1;SDS_P2;PMS_P1;PMS_P2;Temp;Humidity;BMP_temperature;BMP_pressure;BME280_temperature;BME280_humidity;BME280_pressure;Samples;Min_cycle;Max_cycle;Signal;HPM_P1;HPM_P2
2023/09/06 00:00:42;;;;;;;7.05;5.82;;;;;;;17.38;91.76;102057.34;5005134;28;20473;-77
2023/09/06 00:03:09;;;;;;;9.85;5.25;;;;;;;17.35;91.51;102059.84;5007157;28;20493;-77
2023/09/06 00:05:41;;;;;;;14.18;5.07;;;;;;;17.32;91.18;102054.97;5002510;28;20045;-77
2023/09/06 00:08:12;;;;;;;11.93;5.05;;;;;;;17.32;91.13;102057.69;5007248;28;20041;-78
2023/09/06 00:10:38;;;;;;;8.27;4.90;;;;;;;17.29;90.90;102058.25;4992005;28;20060;-76
2023/09/06 00:13:06;;;;;;;8.13;5.07;;;;;;;17.27;91.26;102058.53;5042973;28;20033;-77
2023/09/06 00:15:32;;;;;;;6.10;5.05;;;;;;;17.23;91.50;102046.66;5004119;28;20033;-76
2023/09/06 00:17:57;;;;;;;7.30;5.57;;;;;;;17.18;92.35;102055.59;5011548;28;20071;-79
2023/09/06 00:20:24;;;;;;;7.10;5.32;;;;;;;17.16;92.42;102057.81;5007461;28;20068;-78
2023/09/06 00:22:56;;;;;;;8.68;5.40;;;;;;;17.15;92.98;102060.78;4991436;28;20036;-79
2023/09/06 00:25:22;;;;;;;8.30;5.72;;;;;;;17.12;93.27;102070.28;5006752;28;20147;-76
2023/09/06 00:27:49;;;;;;;7.07;5.88;;;;;;;17.07;93.09;102059.50;5027236;28;20033;-75
2023/09/06 00:30:18;;;;;;;7.60;5.80;;;;;;;17.08;92.72;102060.31;5025072;28;20059;-76
2023/09/06 00:32:46;;;;;;;5.97;4.72;;;;;;;17.09;92.25;102057.31;5021837;28;20037;-76
2023/09/06 00:35:18;;;;;;;5.43;4.70;;;;;;;17.08;92.52;102066.53;5007352;28;20453;-78
2023/09/06 00:37:44;;;;;;;8.23;5.90;;;;;;;17.06;92.42;102062.47;5006454;28;20067;-76
2023/09/06 00:40:21;;;;;;;7.05;5.03;;;;;;;17.03;92.53;102063.84;4982595;28;20116;-76
2023/09/06 00:42:52;;;;;;;7.15;4.88;;;;;;;17.00;92.22;102069.84;5004544;28;20119;-78
2023/09/06 00:45:26;;;;;;;5.60;4.57;;;;;;;16.97;92.43;102069.56;5008654;28;20043;-76
2023/09/06 00:47:55;;;;;;;10.73;4.20;;;;;;;16.91;92.52;102076.91;5041611;28;20493;-76
2023/09/06 00:50:21;;;;;;;5.75;4.88;;;;;;;16.89;92.61;102074.50;4992304;28;20036;-75
2023/09/06 00:52:50;;;;;;;5.97;4.03;;;;;;;16.87;92.35;102070.44;4988274;28;20040;-77
2023/09/06 00:55:16;;;;;;;5.60;3.90;;;;;;;16.85;92.44;102075.31;4990074;28;20071;-77
2023/09/06 00:57:42;;;;;;;6.60;4.30;;;;;;;16.80;92.45;102070.75;5018359;28;20191;-78
2023/09/06 01:00:17;;;;;;;7.80;3.72;;;;;;;16.77;92.30;102070.50;5005890;28;20041;-75
2023/09/06 01:02:44;;;;;;;7.82;4.57;;;;;;;16.76;91.92;102068.88;5014635;28;20029;-76
2023/09/06 01:05:10;;;;;;;9.25;4.50;;;;;;;16.74;91.46;102054.84;4994132;28;20125;-77
2023/09/06 01:07:37;;;;;;;;;;;;;;;16.74;91.81;102060.25;4931940;23;20539;-72
2023/09/06 01:10:04;;;;;;;9.52;4.05;;;;;;;16.69;91.24;102054.81;4905716;28;19949;-73
2023/09/06 01:12:30;;;;;;;6.38;4.70;;;;;;;16.68;91.29;102055.91;4912823;28;20324;-71
2023/09/06 01:14:55;;;;;;;;;;;;;;;16.68;91.62;102055.91;4901815;28;20518;-71
2023/09/06 01:17:24;;;;;;;7.65;4.32;;;;;;;16.65;91.55;102058.06;4900125;28;19919;-72
2023/09/06 01:19:57;;;;;;;5.00;4.50;;;;;;;16.68;92.33;102045.91;4903193;28;20051;-75
2023/09/06 01:22:28;;;;;;;5.78;3.88;;;;;;;16.68;92.77;102047.81;4894664;28;20064;-72
2023/09/06 01:24:55;;;;;;;5.35;4.13;;;;;;;16.63;92.47;102052.13;4879162;28;20048;-71
2023/09/06 01:27:22;;;;;;;4.55;3.95;;;;;;;16.62;91.57;102058.63;4893709;28;20040;-72
2023/09/06 01:29:47;;;;;;;5.40;4.28;;;;;;;16.60;91.10;102055.41;4877206;28;20034;-73
2023/09/06 01:32:14;;;;;;;5.03;4.07;;;;;;;16.60;90.71;102058.13;4884246;28;20417;-72
2023/09/06 01:34:39;;;;;;;5.85;4.95;;;;;;;16.56;91.08;102062.44;4876752;28;20062;-71
2023/09/06 01:37:05;;;;;;;5.47;4.90;;;;;;;16.53;91.42;102059.50;4884986;28;20055;-72
2023/09/06 01:39:30;;;;;;;;;;;;;;;16.49;91.17;102059.25;4886760;28;20041;-72
2023/09/06 01:41:56;;;;;;;7.32;4.35;;;;;;;16.45;91.08;102051.94;4904055;28;20507;-73
2023/09/06 01:44:21;;;;;;;;;;;;;;;16.44;91.39;102050.34;4915088;28;20059;-72
2023/09/06 01:46:47;;;;;;;5.07;4.22;;;;;;;16.42;91.65;102052.50;4887298;28;20698;-72
2023/09/06 01:49:13;;;;;;;;;;;;;;;16.39;92.02;102051.16;4889891;28;20044;-74
2023/09/06 01:51:38;;;;;;;5.15;3.83;;;;;;;16.34;91.54;102051.19;4896399;28;20037;-71
2023/09/06 01:54:04;;;;;;;4.78;3.88;;;;;;;16.34;91.51;102056.59;4900399;28;20401;-71
2023/09/06 01:56:30;;;;;;;5.70;4.47;;;;;;;16.33;91.24;102049.59;4895248;28;20055;-72
2023/09/06 01:58:58;;;;;;;4.57;3.85;;;;;;;16.31;91.33;102049.84;4895450;28;20051;-74
2023/09/06 02:01:23;;;;;;;5.53;4.10;;;;;;;16.32;91.26;102053.34;4867221;28;20060;-71
2023/09/06 02:03:49;;;;;;;5.72;4.40;;;;;;;16.31;91.67;102051.72;4869698;28;20469;-71
2023/09/06 02:06:16;;;;;;;7.03;3.95;;;;;;;16.30;91.79;102056.34;4891343;28;20043;-71
2023/09/06 02:08:42;;;;;;;;;;;;;;;16.29;92.17;102051.22;4873898;28;20048;-72
2023/09/06 02:11:08;;;;;;;5.68;3.70;;;;;;;16.23;92.24;102047.72;4878232;28;20012;-72
2023/09/06 02:13:34;;;;;;;;;;;;;;;16.24;91.89;102051.22;4908990;28;20140;-74
2023/09/06 02:16:01;;;;;;;4.57;3.78;;;;;;;16.19;91.99;102053.94;4882449;28;19973;-75
2023/09/06 02:18:27;;;;;;;7.63;5.05;;;;;;;16.17;92.60;102058.81;4881922;28;20554;-73
2023/09/06 02:20:55;;;;;;;;;;;;;;;16.14;92.87;102056.69;4893607;28;20044;-72
2023/09/06 02:23:22;;;;;;;5.85;4.35;;;;;;;16.07;92.34;102057.78;4913962;28;19961;-72
2023/09/06 02:25:48;;;;;;;7.43;4.45;;;;;;;16.04;92.25;102058.31;4896161;28;20127;-73
2023/09/06 02:28:17;;;;;;;5.32;4.78;;;;;;;16.00;92.33;102062.66;4894307;28;20032;-72
2023/09/06 02:30:44;;;;;;;7.63;4.57;;;;;;;15.97;92.11;102049.66;4894425;28;20553;-72
2023/09/06 02:33:13;;;;;;;;;;;;;;;15.94;92.56;102058.34;4899650;28;20031;-72
2023/09/06 02:35:40;;;;;;;10.65;5.50;;;;;;;15.91;92.21;102066.16;4896594;28;20376;-72
2023/09/06 02:38:12;;;;;;;7.63;4.70;;;;;;;15.87;92.58;102067.81;4884272;28;20044;-72
2023/09/06 02:40:42;;;;;;;9.13;5.05;;;;;;;15.85;92.44;102062.69;4882749;28;20029;-72
2023/09/06 02:43:10;;;;;;;5.88;4.20;;;;;;;15.79;92.35;102061.06;4887249;28;20032;-72
2023/09/06 02:45:37;;;;;;;5.88;4.15;;;;;;;15.79;92.57;102069.19;4921748;28;20040;-71
2023/09/06 02:48:12;;;;;;;6.57;4.07;;;;;;;15.77;92.60;102068.63;4912720;28;20044;-72
2023/09/06 02:50:39;;;;;;;6.13;4.43;;;;;;;15.76;92.44;102067.81;4889250;28;20485;-73
2023/09/06 02:53:15;;;;;;;5.30;4.20;;;;;;;15.78;92.53;102059.44;4905321;28;20126;-72
2023/09/06 02:55:41;;;;;;;5.20;4.65;;;;;;;15.78;92.71;102065.66;4865339;28;20047;-73
2023/09/06 02:58:10;;;;;;;4.55;3.35;;;;;;;15.77;92.68;102072.13;4884295;28;20044;-73
2023/09/06 03:00:40;;;;;;;5.60;4.20;;;;;;;15.76;92.66;102069.72;4909836;28;20063;-72
2023/09/06 03:03:06;;;;;;;7.72;4.07;;;;;;;15.76;92.54;102077.81;4901010;28;20376;-73
2023/09/06 03:05:41;;;;;;;6.82;4.03;;;;;;;15.73;92.75;102071.06;4883346;28;20139;-73
2023/09/06 03:08:13;;;;;;;6.80;4.63;;;;;;;15.73;93.21;102076.47;4913522;28;20040;-71
2023/09/06 03:10:44;;;;;;;5.80;4.32;;;;;;;15.69;93.01;102077.28;4896033;28;20041;-72
2023/09/06 03:13:12;;;;;;;6.38;3.92;;;;;;;15.70;92.40;102074.28;4892417;28;20036;-73
2023/09/06 03:15:43;;;;;;;7.68;4.40;;;;;;;15.70;92.32;102076.19;4905774;28;20037;-71
2023/09/06 03:18:10;;;;;;;7.47;4.43;;;;;;;15.64;92.52;102075.38;4881397;28;20044;-72
2023/09/06 03:20:45;;;;;;;5.68;3.88;;;;;;;15.64;92.56;102075.38;4896823;28;20048;-72
2023/09/06 03:23:23;;;;;;;6.88;4.30;;;;;;;15.64;93.51;102079.97;4883744;28;20032;-71
2023/09/06 03:25:54;;;;;;;4.45;3.75;;;;;;;15.62;93.69;102087.53;4899602;28;20059;-73
2023/09/06 03:28:25;;;;;;;5.00;4.15;;;;;;;15.62;93.23;102084.84;4902018;28;20048;-74
2023/09/06 03:30:54;;;;;;;5.70;4.43;;;;;;;15.62;94.22;102079.44;4871799;28;20043;-73
2023/09/06 03:33:22;;;;;;;4.55;4.00;;;;;;;15.61;93.73;102080.50;4888582;28;20052;-71
2023/09/06 03:35:49;;;;;;;4.57;3.78;;;;;;;15.60;93.61;102089.69;4879219;28;20043;-72
2023/09/06 03:38:17;;;;;;;7.93;3.83;;;;;;;15.61;93.35;102085.91;4875461;28;20036;-73
2023/09/06 03:40:46;;;;;;;8.20;5.38;;;;;;;15.61;93.62;102086.69;4888770;28;20081;-73
2023/09/06 03:43:15;;;;;;;6.43;5.60;;;;;;;15.59;94.13;102091.56;4888960;28;20036;-73
2023/09/06 03:45:46;;;;;;;5.43;4.93;;;;;;;15.58;94.34;102095.34;4897447;28;20043;-73
2023/09/06 03:48:17;;;;;;;7.05;4.82;;;;;;;15.54;94.20;102095.06;4890000;28;20036;-72
2023/09/06 03:50:43;;;;;;;4.20;3.60;;;;;;;15.53;93.35;102079.97;4902922;28;20032;-73
2023/09/06 03:53:09;;;;;;;5.65;4.15;;;;;;;15.52;93.10;102091.03;4873294;28;20075;-71
2023/09/06 03:55:37;;;;;;;;;;;;;;;15.49;93.39;102095.06;4896162;28;20580;-73
2023/09/06 03:58:07;;;;;;;11.07;5.03;;;;;;;15.47;93.84;102097.22;4912146;28;19919;-74
2023/09/06 04:00:34;;;;;;;7.93;4.95;;;;;;;15.43;93.73;102101.53;4886784;28;20119;-74
2023/09/06 04:03:15;;;;;;;8.88;4.35;;;;;;;15.42;93.37;102104.50;4890085;28;20038;-75
2023/09/06 04:05:41;;;;;;;12.95;5.55;;;;;;;15.38;93.45;102098.84;4904603;28;20496;-75
2023/09/06 04:08:09;;;;;;;7.10;5.40;;;;;;;15.38;93.18;102104.25;4906146;28;20044;-73
2023/09/06 04:10:38;;;;;;;;;;;;;;;15.36;93.58;102110.97;4877086;28;20047;-73
2023/09/06 04:13:08;;;;;;;6.68;3.90;;;;;;;15.32;93.20;102104.50;4894996;28;19923;-75
2023/09/06 04:15:35;;;;;;;6.68;4.10;;;;;;;15.32;93.01;102099.94;4904755;28;20044;-74
2023/09/06 04:18:07;;;;;;;9.15;4.03;;;;;;;15.30;92.68;102102.06;4890657;28;20107;-74
2023/09/06 04:20:44;;;;;;;4.45;3.75;;;;;;;15.27;92.25;102100.72;4906355;28;20086;-73
2023/09/06 04:23:16;;;;;;;4.38;3.55;;;;;;;15.25;92.54;102102.06;4918551;28;20053;-73
2023/09/06 04:25:46;;;;;;;4.65;3.40;;;;;;;15.26;92.78;102098.28;4891870;28;20036;-74
2023/09/06 04:28:20;;;;;;;5.03;3.30;;;;;;;15.25;92.49;102097.50;4908189;28;20102;-72
2023/09/06 04:30:48;;;;;;;4.20;3.25;;;;;;;15.25;92.76;102096.69;4870581;28;20044;-73
2023/09/06 04:33:16;;;;;;;5.40;3.03;;;;;;;15.24;92.76;102082.38;4888903;28;20043;-73
2023/09/06 04:36:11;;;;;;;6.53;3.42;;;;;;;15.24;92.26;102092.34;4896444;28;20048;-74
2023/09/06 04:38:38;;;;;;;6.45;4.00;;;;;;;15.26;93.39;102084.81;4896536;28;20111;-72
2023/09/06 04:41:07;;;;;;;5.20;3.17;;;;;;;15.25;92.67;102091.28;4900685;28;20082;-73
2023/09/06 04:43:40;;;;;;;3.80;3.17;;;;;;;15.25;92.14;102099.38;4906165;28;20115;-73
2023/09/06 04:46:06;;;;;;;4.88;4.10;;;;;;;15.22;92.73;102095.31;4874810;28;20046;-73
2023/09/06 04:48:36;;;;;;;4.95;3.85;;;;;;;15.19;92.92;102103.94;4873085;28;20040;-72
2023/09/06 04:51:02;;;;;;;5.40;4.18;;;;;;;15.18;93.48;102105.03;4900299;28;20074;-72
2023/09/06 04:53:29;;;;;;;6.32;3.47;;;;;;;15.15;93.56;102091.25;4893045;28;20052;-72
2023/09/06 04:55:55;;;;;;;4.28;3.50;;;;;;;15.15;93.17;102093.94;4897823;28;20044;-73
2023/09/06 04:58:25;;;;;;;5.38;4.45;;;;;;;15.12;92.90;102099.91;4896748;28;20044;-72
2023/09/06 05:00:51;;;;;;;7.18;4.35;;;;;;;15.09;93.17;102095.00;4872084;28;20140;-73
2023/09/06 05:03:17;;;;;;;;;;;;;;;15.10;93.65;102102.03;4887111;28;20040;-73
2023/09/06 05:05:47;;;;;;;6.25;3.97;;;;;;;15.08;93.51;102102.31;4915461;28;19922;-73
2023/09/06 05:08:13;;;;;;;7.32;4.28;;;;;;;15.08;93.67;102109.59;4895344;28;20032;-72
2023/09/06 05:10:39;;;;;;;4.05;3.60;;;;;;;15.07;93.30;102111.47;4871135;28;20043;-73
2023/09/06 05:13:11;;;;;;;8.82;4.45;;;;;;;15.08;93.40;102112.28;4909760;28;20055;-73
2023/09/06 05:15:41;;;;;;;4.70;3.28;;;;;;;15.06;93.70;102111.75;4891215;28;20063;-73
2023/09/06 05:18:09;;;;;;;6.43;3.65;;;;;;;15.08;93.60;102110.41;4895303;28;20497;-73
2023/09/06 05:20:41;;;;;;;6.00;3.70;;;;;;;15.09;93.62;102116.59;4902197;28;20040;-73
2023/09/06 05:23:14;;;;;;;4.40;3.38;;;;;;;15.09;93.83;102117.41;4865571;28;20099;-73
2023/09/06 05:25:42;;;;;;;5.97;3.60;;;;;;;15.11;93.58;102117.16;4891481;28;20413;-72
2023/09/06 05:28:14;;;;;;;5.32;3.90;;;;;;;15.13;93.75;102123.09;4891313;28;20070;-72
2023/09/06 05:30:46;;;;;;;7.03;3.42;;;;;;;15.16;93.78;102125.25;4891531;28;20047;-73
2023/09/06 05:33:15;;;;;;;4.20;3.00;;;;;;;15.19;93.92;102124.72;4897138;28;20043;-71
2023/09/06 05:35:43;;;;;;;5.60;3.70;;;;;;;15.21;94.30;102136.06;4886967;28;20048;-74
2023/09/06 05:38:10;;;;;;;5.57;3.72;;;;;;;15.28;94.72;102139.31;4884615;28;20524;-73
2023/09/06 05:40:43;;;;;;;4.57;3.80;;;;;;;15.34;95.02;102137.44;4888435;28;20039;-73
2023/09/06 05:43:14;;;;;;;4.82;4.32;;;;;;;15.37;95.56;102135.00;4882862;28;20512;-72
2023/09/06 05:45:40;;;;;;;7.25;4.80;;;;;;;15.44;96.42;102134.75;4881815;28;20040;-72
2023/09/06 05:48:07;;;;;;;7.38;5.78;;;;;;;15.50;96.85;102144.47;4898763;28;20043;-76
2023/09/06 05:50:34;;;;;;;5.53;4.95;;;;;;;15.57;97.38;102153.91;4887978;28;20040;-73
2023/09/06 05:53:00;;;;;;;8.35;5.65;;;;;;;15.66;97.69;102146.16;4912353;28;20127;-72
2023/09/06 05:55:26;;;;;;;8.65;6.05;;;;;;;15.73;98.34;102156.69;4894488;28;20044;-72
2023/09/06 05:57:54;;;;;;;6.03;4.82;;;;;;;15.78;97.99;102148.56;4882918;28;20565;-72
2023/09/06 06:00:21;;;;;;;;;;;;;;;15.89;97.81;102152.91;4881754;28;20123;-71
2023/09/06 06:02:55;;;;;;;7.63;6.45;;;;;;;15.99;97.86;102160.19;4901226;28;19950;-71
2023/09/06 06:05:21;;;;;;;6.90;5.43;;;;;;;16.13;98.08;102157.75;4892331;28;20102;-72
2023/09/06 06:07:46;;;;;;;;;;;;;;;16.26;97.74;102168.81;4884397;28;20040;-71
2023/09/06 06:10:14;;;;;;;5.05;4.55;;;;;;;16.41;97.46;102161.75;4908337;28;19969;-70
2023/09/06 06:12:41;;;;;;;7.40;4.50;;;;;;;16.57;97.00;102166.84;4891162;28;20044;-74
2023/09/06 06:15:08;;;;;;;7.10;5.50;;;;;;;16.73;96.24;102164.09;4900042;28;20051;-72
2023/09/06 06:17:35;;;;;;;6.38;5.57;;;;;;;16.86;95.72;102171.63;4905603;28;20044;-72
2023/09/06 06:20:03;;;;;;;8.60;4.82;;;;;;;16.98;95.03;102177.53;4896831;28;20119;-73
2023/09/06 06:22:29;;;;;;;6.00;4.75;;;;;;;17.10;94.17;102175.31;4894575;28;20043;-70
2023/09/06 06:24:59;;;;;;;;;;;;;;;17.24;94.53;102169.28;4898802;28;20080;-73
2023/09/06 06:27:25;;;;;;;;;;;;;;;17.30;94.15;102171.69;4894455;28;19919;-71
2023/09/06 06:29:51;;;;;;;5.53;5.03;;;;;;;17.39;93.65;102177.31;4903119;28;19949;-72
2023/09/06 06:32:16;;;;;;;6.03;4.53;;;;;;;17.49;92.77;102174.56;4972274;28;20467;-72
2023/09/06 06:34:43;;;;;;;6.95;5.03;;;;;;;17.60;91.94;102172.56;4905852;28;20100;-72
2023/09/06 06:37:09;;;;;;;4.30;3.83;;;;;;;17.71;91.58;102169.53;4893812;28;20128;-72
2023/09/06 06:39:35;;;;;;;6.90;4.00;;;;;;;17.84;90.77;102178.13;4899037;28;20036;-72
2023/09/06 06:42:01;;;;;;;7.07;4.90;;;;;;;17.91;90.58;102176.69;4877030;28;20044;-72
2023/09/06 06:44:33;;;;;;;6.15;4.40;;;;;;;18.01;89.81;102168.47;4886061;28;20160;-72
2023/09/06 06:46:59;;;;;;;4.90;4.40;;;;;;;18.12;89.81;102174.59;4882019;28;20039;-72
2023/09/06 06:49:25;;;;;;;4.72;4.22;;;;;;;18.19;88.94;102166.94;4886470;28;20040;-72
2023/09/06 06:51:51;;;;;;;4.43;4.03;;;;;;;18.30;88.84;102172.28;4892121;28;20059;-73
2023/09/06 06:54:17;;;;;;;7.45;4.40;;;;;;;18.37;89.00;102175.47;4875820;28;20037;-72
2023/09/06 06:56:43;;;;;;;4.40;3.88;;;;;;;18.42;88.25;102180.81;4906305;28;20039;-73
2023/09/06 06:59:09;;;;;;;6.43;4.45;;;;;;;18.54;87.89;102183.94;4881037;28;20044;-72
2023/09/06 07:01:36;;;;;;;5.68;3.85;;;;;;;18.63;88.28;102187.66;4901657;28;20039;-71
2023/09/06 07:04:05;;;;;;;5.20;4.22;;;;;;;18.68;87.98;102190.31;4902496;28;20047;-72
2023/09/06 07:06:35;;;;;;;7.97;3.60;;;;;;;18.79;87.23;102191.81;4920623;28;20032;-72
2023/09/06 07:09:04;;;;;;;5.57;4.53;;;;;;;18.87;86.80;102190.38;4890487;28;20043;-73
2023/09/06 07:11:31;;;;;;;5.47;4.18;;;;;;;18.95;86.22;102195.16;4906581;28;20146;-72
2023/09/06 07:13:56;;;;;;;6.45;4.00;;;;;;;19.06;85.61;102195.84;4895232;28;20036;-72
2023/09/06 07:16:22;;;;;;;5.85;3.88;;;;;;;19.16;84.66;102195.69;4880105;28;20051;-72
2023/09/06 07:18:49;;;;;;;5.05;4.10;;;;;;;19.21;85.13;102201.06;4882426;28;20052;-72
2023/09/06 07:21:16;;;;;;;4.28;3.75;;;;;;;19.29;84.76;102197.69;4885518;28;20130;-73
2023/09/06 07:24:00;;;;;;;5.90;4.35;;;;;;;19.42;84.45;102200.78;4895672;28;20151;-73
2023/09/06 07:26:26;;;;;;;5.55;4.53;;;;;;;19.52;84.52;102200.66;4904309;28;20123;-73
2023/09/06 07:28:51;;;;;;;6.32;4.65;;;;;;;19.60;83.44;102206.25;4881965;28;20067;-71
2023/09/06 07:31:17;;;;;;;4.50;3.97;;;;;;;19.71;83.65;102201.47;4881614;28;20176;-71
2023/09/06 07:33:43;;;;;;;4.57;3.80;;;;;;;19.81;83.04;102206.72;4876710;28;20039;-72
2023/09/06 07:36:10;;;;;;;7.97;3.75;;;;;;;19.91;82.31;102205.75;4905190;28;20045;-71
2023/09/06 07:38:35;;;;;;;5.45;4.35;;;;;;;20.02;82.27;102200.97;4878276;28;20033;-71
2023/09/06 07:41:08;;;;;;;5.50;4.13;;;;;;;20.12;81.97;102206.25;4879355;28;20047;-71
2023/09/06 07:43:37;;;;;;;5.15;3.97;;;;;;;20.27;81.56;102213.31;4897931;28;20032;-72
2023/09/06 07:46:06;;;;;;;4.75;3.88;;;;;;;20.35;81.29;102210.72;4881947;28;20047;-73
2023/09/06 07:48:32;;;;;;;5.05;4.20;;;;;;;20.44;81.15;102208.94;4877041;28;20047;-72
2023/09/06 07:50:59;;;;;;;8.88;4.13;;;;;;;20.54;81.21;102218.81;4882786;28;20041;-71
2023/09/06 07:53:28;;;;;;;5.28;3.10;;;;;;;20.65;80.54;102214.78;4879825;28;20035;-73
2023/09/06 07:55:55;;;;;;;3.97;3.58;;;;;;;20.72;79.00;102208.94;4879592;28;20374;-71
2023/09/06 07:58:21;;;;;;;5.75;4.43;;;;;;;20.85;78.75;102210.06;4868876;28;20594;-73
2023/09/06 08:00:48;;;;;;;4.22;3.83;;;;;;;20.94;78.91;102222.66;4895492;28;20064;-72
2023/09/06 08:03:14;;;;;;;5.20;3.78;;;;;;;21.08;78.35;102221.84;4901251;28;20036;-72
2023/09/06 08:05:41;;;;;;;8.43;4.03;;;;;;;21.19;76.88;102218.56;4862346;28;20044;-70
2023/09/06 08:08:11;;;;;;;5.65;4.47;;;;;;;21.29;76.29;102217.59;4893322;28;20037;-70
2023/09/06 08:10:38;;;;;;;4.10;3.50;;;;;;;21.38;76.36;102221.19;4881811;28;20037;-72
2023/09/06 08:13:04;;;;;;;4.88;4.15;;;;;;;21.42;77.00;102227.66;4882100;28;20044;-72
2023/09/06 08:15:33;;;;;;;4.45;3.35;;;;;;;21.49;76.50;102228.03;4872250;28;20040;-73
2023/09/06 08:17:59;;;;;;;4.85;3.53;;;;;;;21.61;76.90;102223.94;4878465;28;20123;-72
2023/09/06 08:20:25;;;;;;;4.88;3.72;;;;;;;21.68;76.74;102218.91;4892416;28;20068;-71
2023/09/06 08:22:51;;;;;;;3.55;2.90;;;;;;;21.77;76.41;102226.03;4896402;28;20074;-71
2023/09/06 08:25:18;;;;;;;4.68;3.17;;;;;;;21.91;75.42;102217.78;4882097;28;20369;-73
2023/09/06 08:27:44;;;;;;;6.35;3.38;;;;;;;22.00;75.15;102221.34;4875973;28;20036;-70
2023/09/06 08:30:13;;;;;;;3.83;3.47;;;;;;;22.13;73.67;102225.16;4901855;28;20469;-71
2023/09/06 08:32:40;;;;;;;3.80;3.33;;;;;;;22.23;71.84;102221.38;4919857;28;20068;-72
2023/09/06 08:35:07;;;;;;;4.80;3.78;;;;;;;22.35;72.14;102216.13;4882736;28;20055;-72
2023/09/06 08:37:33;;;;;;;4.82;3.60;;;;;;;22.48;71.79;102225.34;4983445;28;20094;-72
2023/09/06 08:40:00;;;;;;;6.75;3.30;;;;;;;22.61;72.65;102224.44;4904061;28;20044;-73
2023/09/06 08:42:27;;;;;;;3.95;2.65;;;;;;;22.72;72.37;102223.03;4898515;28;20098;-73
2023/09/06 08:44:54;;;;;;;4.72;3.00;;;;;;;22.87;71.25;102228.09;4883890;28;20576;-72
2023/09/06 08:47:21;;;;;;;6.40;3.13;;;;;;;22.97;70.81;102227.00;4978855;28;20042;-72
2023/09/06 08:49:47;;;;;;;3.85;2.80;;;;;;;23.12;71.62;102223.81;4898061;28;20039;-73
2023/09/06 08:52:17;;;;;;;6.00;2.92;;;;;;;23.23;70.96;102223.50;4901704;28;20296;-72
2023/09/06 08:54:48;;;;;;;5.25;3.13;;;;;;;23.34;69.48;102219.34;4902330;28;20036;-71
2023/09/06 08:57:15;;;;;;;5.50;2.83;;;;;;;23.48;68.16;102214.50;4895758;28;20139;-71
2023/09/06 08:59:41;;;;;;;6.00;2.90;;;;;;;23.60;67.97;102214.69;4884381;28;20039;-73
2023/09/06 09:02:12;;;;;;;7.60;3.28;;;;;;;23.67;67.02;102211.50;4897235;28;20579;-72
2023/09/06 09:04:41;;;;;;;5.05;2.72;;;;;;;23.77;67.21;102216.63;4902777;28;20492;-73
2023/09/06 09:07:08;;;;;;;3.42;3.00;;;;;;;23.91;67.61;102220.00;4899012;28;20041;-74
2023/09/06 09:09:54;;;;;;;7.90;2.88;;;;;;;24.00;66.26;102225.44;4896369;28;20039;-74
2023/09/06 09:12:24;;;;;;;3.90;2.40;;;;;;;24.12;65.74;102222.84;4884034;28;20042;-72
2023/09/06 09:14:51;;;;;;;6.03;1.92;;;;;;;24.21;65.32;102226.38;4918145;28;20056;-73
2023/09/06 09:17:20;;;;;;;2.47;2.15;;;;;;;24.30;64.66;102234.53;4902368;28;20842;-75
2023/09/06 09:19:56;;;;;;;3.70;2.40;;;;;;;24.42;64.55;102222.94;4883262;28;20386;-72
2023/09/06 09:22:37;;;;;;;7.20;2.33;;;;;;;24.48;65.82;102225.19;4871271;28;20066;-73
2023/09/06 09:25:17;;;;;;;4.82;2.88;;;;;;;24.57;64.32;102219.66;4882454;28;20424;-73
2023/09/06 09:27:47;;;;;;;2.58;2.10;;;;;;;24.68;63.53;102223.66;4901941;28;20048;-73
2023/09/06 09:30:16;;;;;;;5.65;2.90;;;;;;;24.81;63.17;102226.47;4880148;28;20037;-73
2023/09/06 09:32:42;;;;;;;6.20;2.00;;;;;;;24.92;62.15;102227.69;4883808;28;20074;-71
2023/09/06 09:35:12;;;;;;;5.55;2.88;;;;;;;24.93;62.45;102230.13;4902727;28;20045;-73
2023/09/06 09:37:49;;;;;;;3.90;2.65;;;;;;;25.05;61.71;102226.69;4900020;28;20501;-73
2023/09/06 09:40:22;;;;;;;3.33;2.40;;;;;;;25.18;58.79;102228.38;4894332;28;20143;-71
2023/09/06 09:42:55;;;;;;;4.63;2.00;;;;;;;25.23;60.58;102222.69;4886666;28;20068;-73
2023/09/06 09:45:26;;;;;;;3.30;2.20;;;;;;;25.23;60.87;102225.44;4883585;28;20040;-72
2023/09/06 09:47:55;;;;;;;3.65;2.42;;;;;;;25.28;58.67;102229.94;4897660;28;20101;-71
2023/09/06 09:50:32;;;;;;;4.50;2.08;;;;;;;25.35;58.62;102226.66;4884931;28;20051;-70
2023/09/06 09:52:59;;;;;;;3.28;2.33;;;;;;;25.42;59.55;102224.19;4873409;28;20155;-71
2023/09/06 09:55:31;;;;;;;3.47;2.10;;;;;;;25.50;58.41;102223.31;4894770;28;20066;-74
2023/09/06 09:57:58;;;;;;;4.30;1.95;;;;;;;25.55;57.64;102223.09;4880320;28;20977;-73
2023/09/06 10:00:28;;;;;;;2.45;1.67;;;;;;;25.58;58.22;102216.94;4884779;28;20051;-73
2023/09/06 10:02:58;;;;;;;2.75;1.85;;;;;;;25.68;57.55;102221.22;4899704;28;20457;-73
2023/09/06 10:05:29;;;;;;;5.43;2.13;;;;;;;25.72;57.58;102217.47;4886198;28;20048;-73
2023/09/06 10:07:56;;;;;;;3.28;2.03;;;;;;;25.78;57.13;102216.13;4888163;28;20067;-73
2023/09/06 10:10:24;;;;;;;3.60;1.98;;;;;;;25.86;56.88;102211.69;4901733;28;20505;-71
2023/09/06 10:12:51;;;;;;;4.25;2.10;;;;;;;25.94;56.90;102212.75;4895839;28;20493;-73
2023/09/06 10:15:20;;;;;;;3.92;2.45;;;;;;;25.96;56.45;102205.00;4870158;28;20585;-72
2023/09/06 10:17:48;;;;;;;3.17;2.00;;;;;;;26.12;57.02;102203.19;4886505;28;20074;-73
2023/09/06 10:20:14;;;;;;;3.80;2.40;;;;;;;26.20;55.78;102205.03;4894825;28;20044;-73
2023/09/06 10:22:46;;;;;;;3.05;1.52;;;;;;;26.23;54.97;102212.59;4865517;28;20426;-73
2023/09/06 10:25:13;;;;;;;;;;;;;;;26.24;54.87;102205.97;4889434;28;20052;-71
2023/09/06 10:27:52;;;;;;;2.42;1.88;;;;;;;26.39;55.11;102212.72;4872596;28;20030;-73
2023/09/06 10:30:40;;;;;;;4.05;2.05;;;;;;;26.44;55.18;102214.47;4899970;28;21099;-74
2023/09/06 10:33:08;;;;;;;3.58;2.42;;;;;;;26.53;56.43;102206.94;4909952;28;20049;-73
2023/09/06 10:35:41;;;;;;;2.58;1.55;;;;;;;26.65;57.38;102210.47;4895329;28;20033;-74
2023/09/06 10:38:15;;;;;;;4.28;2.80;;;;;;;26.71;54.67;102205.56;4893311;28;20072;-72
2023/09/06 10:41:04;;;;;;;4.03;1.88;;;;;;;26.72;54.07;102209.09;4891429;28;20060;-75
2023/09/06 10:43:51;;;;;;;2.03;1.80;;;;;;;26.79;53.00;102203.81;4870516;28;20147;-72
2023/09/06 10:46:23;;;;;;;6.30;2.30;;;;;;;26.84;53.50;102201.66;4868978;28;20044;-73
2023/09/06 10:49:12;;;;;;;4.85;1.95;;;;;;;26.97;54.00;102201.66;4891476;28;20036;-72
2023/09/06 10:52:02;;;;;;;3.20;2.13;;;;;;;26.99;52.76;102196.59;4904123;28;20044;-72
2023/09/06 10:54:39;;;;;;;4.18;1.73;;;;;;;27.05;53.82;102195.25;4879650;28;20040;-71
2023/09/06 10:57:08;;;;;;;2.85;1.85;;;;;;;27.15;54.60;102192.78;4900549;28;20082;-74
2023/09/06 10:59:44;;;;;;;3.45;1.90;;;;;;;27.25;54.53;102187.97;4914218;28;20090;-73
2023/09/06 11:02:18;;;;;;;4.03;2.13;;;;;;;27.33;52.97;102190.56;4881079;28;20175;-74
2023/09/06 11:04:45;;;;;;;3.00;2.25;;;;;;;27.47;53.04;102190.97;4896795;28;20036;-74
2023/09/06 11:07:10;;;;;;;2.75;2.03;;;;;;;27.49;51.45;102187.88;4875430;28;20424;-71
2023/09/06 11:09:44;;;;;;;2.85;1.70;;;;;;;27.55;51.97;102191.97;4897780;28;20044;-75
2023/09/06 11:12:11;;;;;;;4.35;2.10;;;;;;;27.64;51.39;102200.09;4880999;28;20073;-72
2023/09/06 11:14:37;;;;;;;2.55;2.00;;;;;;;27.70;51.87;102188.47;4863262;28;20032;-73
2023/09/06 11:17:03;;;;;;;2.30;1.98;;;;;;;27.78;51.71;102188.69;4882171;28;20047;-72
2023/09/06 11:19:29;;;;;;;2.78;2.10;;;;;;;27.83;51.77;102194.72;4887579;28;20043;-74
2023/09/06 11:22:09;;;;;;;6.00;2.22;;;;;;;27.94;52.82;102189.50;4882579;28;20111;-74
2023/09/06 11:24:36;;;;;;;2.80;1.88;;;;;;;27.97;51.46;102186.84;4899314;28;20040;-71
2023/09/06 11:27:17;;;;;;;3.67;1.70;;;;;;;28.11;51.88;102191.13;4900633;28;20036;-72
2023/09/06 11:29:43;;;;;;;2.92;1.88;;;;;;;28.16;50.38;102188.09;4901143;28;20046;-73
2023/09/06 11:32:11;;;;;;;3.65;2.58;;;;;;;28.22;51.40;102183.94;4889111;28;20042;-74
2023/09/06 11:34:42;;;;;;;4.65;1.83;;;;;;;28.20;50.39;102186.25;4897958;28;20040;-74
2023/09/06 11:37:10;;;;;;;3.33;2.22;;;;;;;28.32;50.49;102183.44;4902605;28;20123;-75